sensor_id;sensor_type;location;lat;lon;timestamp;pressure;altitude;pressure_sealevel;temperature;humidity
24302;BME280;12421;49.732;20.078;2022-07-23T00:01:52;96988.34;;;17.19;75.96
24302;BME280;12421;49.732;20.078;2022-07-23T00:11:54;96985.36;;;17.04;76.66
24302;BME280;12421;49.732;20.078;2022-07-23T00:21:56;96983.88;;;16.95;76.89
24302;BME280;12421;49.732;20.078;2022-07-23T00:31:58;96976.88;;;16.80;77.32
24302;BME280;12421;49.732;20.078;2022-07-23T00:42:00;96977.64;;;16.83;78.05
24302;BME280;12421;49.732;20.078;2022-07-23T00:52:03;96976.80;;;16.70;77.26
24302;BME280;12421;49.732;20.078;2022-07-23T01:02:05;96976.08;;;16.78;77.28
24302;BME280;12421;49.732;20.078;2022-07-23T01:12:08;96979.25;;;16.76;77.03
24302;BME280;12421;49.732;20.078;2022-07-23T01:22:10;96975.55;;;16.67;76.69
24302;BME280;12421;49.732;20.078;2022-07-23T01:43:57;96979.83;;;16.44;76.89
24302;BME280;12421;49.732;20.078;2022-07-23T01:54:00;96979.10;;;16.39;77.14
24302;BME280;12421;49.732;20.078;2022-07-23T02:25:18;96981.80;;;15.97;77.33
24302;BME280;12421;49.732;20.078;2022-07-23T02:35:20;96976.25;;;15.77;77.95
24302;BME280;12421;49.732;20.078;2022-07-23T02:45:22;96975.32;;;15.78;78.04
24302;BME280;12421;49.732;20.078;2022-07-23T02:55:25;96978.03;;;15.62;78.31
24302;BME280;12421;49.732;20.078;2022-07-23T03:16:34;96970.47;;;15.63;77.98
24302;BME280;12421;49.732;20.078;2022-07-23T03:26:45;96975.08;;;15.71;78.14
24302;BME280;12421;49.732;20.078;2022-07-23T03:36:50;96974.30;;;15.53;78.15
24302;BME280;12421;49.732;20.078;2022-07-23T03:47:08;96971.05;;;15.58;78.57
24302;BME280;12421;49.732;20.078;2022-07-23T03:57:10;96970.84;;;15.80;78.65
24302;BME280;12421;49.732;20.078;2022-07-23T04:07:15;96972.53;;;16.10;78.48
24302;BME280;12421;49.732;20.078;2022-07-23T04:17:19;96968.08;;;16.38;78.39
24302;BME280;12421;49.732;20.078;2022-07-23T04:27:21;96966.06;;;16.73;78.16
24302;BME280;12421;49.732;20.078;2022-07-23T04:37:24;96953.23;;;16.97;78.69
24302;BME280;12421;49.732;20.078;2022-07-23T04:47:28;96959.03;;;17.44;78.87
24302;BME280;12421;49.732;20.078;2022-07-23T04:57:31;96945.78;;;17.88;79.06
24302;BME280;12421;49.732;20.078;2022-07-23T05:19:08;96931.70;;;19.11;79.10
24302;BME280;12421;49.732;20.078;2022-07-23T05:29:10;96940.40;;;20.02;77.83
24302;BME280;12421;49.732;20.078;2022-07-23T05:39:13;96943.54;;;21.17;75.43
24302;BME280;12421;49.732;20.078;2022-07-23T05:49:15;96920.49;;;22.35;72.53
24302;BME280;12421;49.732;20.078;2022-07-23T05:59:19;96921.16;;;23.36;69.26
24302;BME280;12421;49.732;20.078;2022-07-23T06:09:21;96914.20;;;23.25;68.49
24302;BME280;12421;49.732;20.078;2022-07-23T06:19:24;96911.57;;;23.32;68.34
24302;BME280;12421;49.732;20.078;2022-07-23T06:29:33;96900.44;;;23.94;67.84
24302;BME280;12421;49.732;20.078;2022-07-23T06:39:37;96891.89;;;25.78;65.01
24302;BME280;12421;49.732;20.078;2022-07-23T06:49:39;96888.45;;;27.43;60.81
24302;BME280;12421;49.732;20.078;2022-07-23T06:59:42;96878.23;;;28.68;58.11
24302;BME280;12421;49.732;20.078;2022-07-23T07:09:45;96876.29;;;29.63;56.57
24302;BME280;12421;49.732;20.078;2022-07-23T07:19:52;96861.50;;;30.71;55.05
24302;BME280;12421;49.732;20.078;2022-07-23T07:29:55;96864.69;;;31.52;53.59
24302;BME280;12421;49.732;20.078;2022-07-23T07:51:26;96842.36;;;33.07;50.12
24302;BME280;12421;49.732;20.078;2022-07-23T08:01:41;96835.68;;;33.62;48.02
24302;BME280;12421;49.732;20.078;2022-07-23T08:11:59;96831.52;;;34.02;47.16
24302;BME280;12421;49.732;20.078;2022-07-23T08:22:03;96832.03;;;34.35;47.16
24302;BME280;12421;49.732;20.078;2022-07-23T08:32:06;96833.75;;;34.02;47.37
24302;BME280;12421;49.732;20.078;2022-07-23T08:42:08;96847.75;;;33.34;46.30
24302;BME280;12421;49.732;20.078;2022-07-23T08:52:10;96842.23;;;33.09;49.01
24302;BME280;12421;49.732;20.078;2022-07-23T09:02:13;96833.05;;;33.14;49.12
24302;BME280;12421;49.732;20.078;2022-07-23T09:12:15;96817.05;;;33.19;47.90
24302;BME280;12421;49.732;20.078;2022-07-23T09:22:22;96808.86;;;33.19;47.58
24302;BME280;12421;49.732;20.078;2022-07-23T09:32:28;96796.06;;;32.98;46.55
24302;BME280;12421;49.732;20.078;2022-07-23T09:42:30;96797.28;;;33.21;46.00
24302;BME280;12421;49.732;20.078;2022-07-23T09:52:34;96805.27;;;33.40;41.86
24302;BME280;12421;49.732;20.078;2022-07-23T10:02:39;96805.24;;;33.53;42.32
24302;BME280;12421;49.732;20.078;2022-07-23T10:12:45;96792.46;;;33.58;39.39
24302;BME280;12421;49.732;20.078;2022-07-23T10:23:03;96785.94;;;33.81;38.69
24302;BME280;12421;49.732;20.078;2022-07-23T10:33:46;96773.76;;;33.71;39.21
24302;BME280;12421;49.732;20.078;2022-07-23T10:54:56;96763.02;;;33.44;40.96
24302;BME280;12421;49.732;20.078;2022-07-23T11:05:19;96752.72;;;33.38;37.56
24302;BME280;12421;49.732;20.078;2022-07-23T11:15:19;96740.72;;;33.35;37.12
24302;BME280;12421;49.732;20.078;2022-07-23T11:25:35;96732.66;;;33.51;35.89
24302;BME280;12421;49.732;20.078;2022-07-23T11:35:59;96721.07;;;33.53;37.03
24302;BME280;12421;49.732;20.078;2022-07-23T11:57:00;96700.98;;;34.00;37.44
24302;BME280;12421;49.732;20.078;2022-07-23T12:07:32;96692.99;;;34.14;38.21
24302;BME280;12421;49.732;20.078;2022-07-23T12:17:50;96688.54;;;34.05;37.26
24302;BME280;12421;49.732;20.078;2022-07-23T12:28:08;96670.19;;;33.90;36.49
24302;BME280;12421;49.732;20.078;2022-07-23T12:38:20;96648.91;;;34.01;37.60
24302;BME280;12421;49.732;20.078;2022-07-23T12:48:28;96648.78;;;33.73;37.10
24302;BME280;12421;49.732;20.078;2022-07-23T12:58:50;96627.28;;;33.82;37.54
24302;BME280;12421;49.732;20.078;2022-07-23T13:09:08;96621.55;;;33.97;39.59
24302;BME280;12421;49.732;20.078;2022-07-23T13:19:16;96601.03;;;33.93;39.10
24302;BME280;12421;49.732;20.078;2022-07-23T13:40:14;96593.20;;;34.14;39.49
24302;BME280;12421;49.732;20.078;2022-07-23T13:50:17;96584.30;;;33.92;42.60
24302;BME280;12421;49.732;20.078;2022-07-23T14:00:19;96554.80;;;33.46;43.15
24302;BME280;12421;49.732;20.078;2022-07-23T14:10:23;96546.36;;;32.98;42.49
24302;BME280;12421;49.732;20.078;2022-07-23T14:20:46;96534.81;;;32.53;43.41
24302;BME280;12421;49.732;20.078;2022-07-23T14:42:18;96558.22;;;31.13;47.53
24302;BME280;12421;49.732;20.078;2022-07-23T14:52:20;96589.95;;;29.92;53.30
24302;BME280;12421;49.732;20.078;2022-07-23T15:02:22;96655.83;;;28.84;55.50
24302;BME280;12421;49.732;20.078;2022-07-23T15:12:37;96650.21;;;27.72;58.29
24302;BME280;12421;49.732;20.078;2022-07-23T15:22:48;96719.56;;;26.90;62.21
24302;BME280;12421;49.732;20.078;2022-07-23T15:32:50;96678.19;;;25.91;60.52
24302;BME280;12421;49.732;20.078;2022-07-23T15:42:52;96720.50;;;25.06;61.92
24302;BME280;12421;49.732;20.078;2022-07-23T15:52:55;96660.14;;;24.45;63.17
24302;BME280;12421;49.732;20.078;2022-07-23T16:02:57;96695.22;;;23.92;63.68
24302;BME280;12421;49.732;20.078;2022-07-23T16:13:18;96746.66;;;23.47;65.44
24302;BME280;12421;49.732;20.078;2022-07-23T16:23:33;96774.27;;;23.49;67.46
24302;BME280;12421;49.732;20.078;2022-07-23T16:34:24;96843.41;;;23.33;67.49
24302;BME280;12421;49.732;20.078;2022-07-23T16:55:32;96744.72;;;20.30;89.26
24302;BME280;12421;49.732;20.078;2022-07-23T17:05:35;96813.78;;;20.22;92.43
24302;BME280;12421;49.732;20.078;2022-07-23T17:15:37;96846.59;;;20.25;93.44
24302;BME280;12421;49.732;20.078;2022-07-23T17:25:39;96841.17;;;20.27;92.74
24302;BME280;12421;49.732;20.078;2022-07-23T17:35:41;96770.08;;;20.23;94.06
24302;BME280;12421;49.732;20.078;2022-07-23T17:45:44;96826.77;;;20.21;95.92
24302;BME280;12421;49.732;20.078;2022-07-23T17:55:46;96730.95;;;20.03;96.22
24302;BME280;12421;49.732;20.078;2022-07-23T18:05:48;96710.66;;;20.25;97.50
24302;BME280;12421;49.732;20.078;2022-07-23T18:15:50;96695.40;;;20.44;98.23
24302;BME280;12421;49.732;20.078;2022-07-23T18:25:52;96699.81;;;20.69;97.90
24302;BME280;12421;49.732;20.078;2022-07-23T18:35:56;96729.51;;;20.89;98.81
24302;BME280;12421;49.732;20.078;2022-07-23T18:45:58;96769.39;;;20.60;96.65
24302;BME280;12421;49.732;20.078;2022-07-23T18:56:02;96820.79;;;20.33;94.00
24302;BME280;12421;49.732;20.078;2022-07-23T19:06:06;96868.17;;;20.31;95.35
24302;BME280;12421;49.732;20.078;2022-07-23T19:16:08;96885.77;;;20.18;94.26
24302;BME280;12421;49.732;20.078;2022-07-23T19:26:10;96918.66;;;20.10;93.20
24302;BME280;12421;49.732;20.078;2022-07-23T19:36:13;96934.06;;;20.05;94.31
24302;BME280;12421;49.732;20.078;2022-07-23T19:46:16;96919.43;;;20.12;94.60
24302;BME280;12421;49.732;20.078;2022-07-23T19:56:18;96916.90;;;20.19;94.68
24302;BME280;12421;49.732;20.078;2022-07-23T20:06:22;96915.36;;;20.32;95.78
24302;BME280;12421;49.732;20.078;2022-07-23T20:16:24;96907.11;;;20.28;94.02
24302;BME280;12421;49.732;20.078;2022-07-23T20:26:29;96919.34;;;20.23;94.26
24302;BME280;12421;49.732;20.078;2022-07-23T20:36:31;96918.39;;;20.16;94.57
24302;BME280;12421;49.732;20.078;2022-07-23T20:46:34;96897.43;;;20.07;92.77
24302;BME280;12421;49.732;20.078;2022-07-23T20:56:36;96892.28;;;20.02;93.58
24302;BME280;12421;49.732;20.078;2022-07-23T21:06:38;96880.86;;;19.99;94.06
24302;BME280;12421;49.732;20.078;2022-07-23T21:16:40;96878.64;;;19.90;93.45
24302;BME280;12421;49.732;20.078;2022-07-23T21:26:42;96867.72;;;19.86;94.25
24302;BME280;12421;49.732;20.078;2022-07-23T21:48:09;96879.44;;;19.92;94.49
24302;BME280;12421;49.732;20.078;2022-07-23T22:09:41;96861.54;;;19.75;94.04
24302;BME280;12421;49.732;20.078;2022-07-23T22:19:59;96886.95;;;19.65;93.94
24302;BME280;12421;49.732;20.078;2022-07-23T22:40:32;96914.96;;;19.57;93.81
24302;BME280;12421;49.732;20.078;2022-07-23T22:50:34;96905.52;;;19.50;92.77
24302;BME280;12421;49.732;20.078;2022-07-23T23:00:36;96892.09;;;19.51;93.32
24302;BME280;12421;49.732;20.078;2022-07-23T23:10:38;96905.23;;;19.56;94.40
24302;BME280;12421;49.732;20.078;2022-07-23T23:20:40;96917.61;;;19.48;92.65
24302;BME280;12421;49.732;20.078;2022-07-23T23:30:42;96914.96;;;19.57;93.09
24302;BME280;12421;49.732;20.078;2022-07-23T23:40:46;96928.39;;;19.55;92.64
24302;BME280;12421;49.732;20.078;2022-07-23T23:50:49;96941.12;;;19.69;93.11
